createdAt,value
2022-10-30T00:05:30.416Z,65.85
2022-10-30T00:34:23.089Z,65.88
2022-10-30T01:03:20.623Z,65.92
2022-10-30T01:32:30.771Z,65.94
2022-10-30T02:01:43.239Z,65.96
2022-10-30T02:30:29.117Z,65.97
2022-10-30T02:59:40.361Z,65.98
2022-10-30T03:28:48.099Z,66.03
2022-10-30T03:58:01.575Z,66.04
2022-10-30T04:26:48.289Z,66.05
2022-10-30T04:56:34.813Z,66.14
2022-10-30T05:25:37.516Z,66.06
2022-10-30T05:37:14.509Z,66.19
2022-10-30T06:07:08.211Z,66.1
2022-10-30T06:36:21.298Z,66.14
2022-10-30T07:05:29.293Z,65.95
2022-10-30T07:34:36.629Z,66.01
2022-10-30T08:03:53.504Z,66
2022-10-30T08:33:03.132Z,66.07
2022-10-30T09:01:52.550Z,65.28
2022-10-30T09:31:18.106Z,65.72
2022-10-30T10:28:54.503Z,65.55
2022-10-30T10:57:40.693Z,65.36
2022-10-30T11:55:23.987Z,65.96
2022-10-30T12:24:21.532Z,65.97
2022-10-30T12:53:37.815Z,65.86
2022-10-30T13:51:53.754Z,65.67
2022-10-30T14:20:44.111Z,65.61
2022-10-30T14:49:47.301Z,65.77
2022-10-30T15:18:55.834Z,65.63
2022-10-30T15:47:48.703Z,65.54
2022-10-30T16:16:37.408Z,65.48
2022-10-30T16:45:47.096Z,65.48
2022-10-30T17:14:40.582Z,65.55
2022-10-30T17:43:15.971Z,65.57
2022-10-30T18:12:07.595Z,65.58
2022-10-30T18:41:00.283Z,65.61
2022-10-30T19:10:25.109Z,65.59
2022-10-30T19:39:54.873Z,65.58
2022-10-30T20:08:51.350Z,65.58
2022-10-30T21:06:49.567Z,65.6
2022-10-30T21:35:52.175Z,65.58
2022-10-30T22:04:26.660Z,65.61
2022-10-30T22:33:16.292Z,65.73
2022-10-30T23:02:03.773Z,65.67
2022-10-30T23:30:53.148Z,65.68
2022-10-30T23:59:54.718Z,65.68
